Time;durP1;ratioP1;P1;durP2;ratioP2;P2;SDS_P1;SDS_P2;PMS_P1;PMS_P2;Temp;Humidity;BMP_temperature;BMP_pressure;BME280_temperature;BME280_humidity;BME280_pressure;Samples;Min_cycle;Max_cycle;Signal;HPM_P1;HPM_P2
2024/01/24 00:02:21;;;;;;;17.40;16.80;;;;;;;-141.02;100.00;102464.22;5114899;28;20194;-65
2024/01/24 00:04:48;;;;;;;17.30;16.70;;;;;;;-141.02;100.00;102464.22;5114830;28;20193;-65
2024/01/24 00:07:16;;;;;;;17.83;17.23;;;;;;;-141.02;100.00;102714.25;5114714;28;20197;-65
2024/01/24 00:09:44;;;;;;;17.83;17.23;;;;;;;-141.02;100.00;102464.22;5114517;28;20767;-65
2024/01/24 00:12:11;;;;;;;18.37;17.73;;;;;;;-141.02;100.00;102214.16;5114460;28;20249;-65
2024/01/24 00:14:39;;;;;;;20.73;19.87;;;;;;;-141.02;100.00;102214.16;5114631;28;20203;-65
2024/01/24 00:17:06;;;;;;;19.43;18.73;;;;;;;-141.02;100.00;102214.16;5113458;28;20259;-65
2024/01/24 00:19:33;;;;;;;17.60;17.00;;;;;;;-141.02;100.00;102214.16;5114633;28;20297;-65
2024/01/24 00:22:00;;;;;;;17.00;16.50;;;;;;;-141.02;100.00;102214.16;5114230;28;20284;-65
2024/01/24 00:24:27;;;;;;;17.80;17.20;;;;;;;-141.02;100.00;102464.22;5114417;28;20193;-65
2024/01/24 00:26:56;;;;;;;17.53;16.93;;;;;;;-141.02;100.00;102464.22;5114187;28;20204;-65
2024/01/24 00:29:26;;;;;;;17.33;16.73;;;;;;;-141.02;100.00;102464.22;5114139;28;20227;-65
2024/01/24 00:31:56;;;;;;;17.30;16.80;;;;;;;-141.02;100.00;102714.25;5114242;28;20250;-65
2024/01/24 00:34:23;;;;;;;14.63;14.23;;;;;;;-141.02;100.00;102714.25;5114275;28;20200;-65
2024/01/24 00:36:51;;;;;;;15.00;14.60;;;;;;;-141.02;100.00;102214.16;5114248;28;20230;-65
2024/01/24 00:39:18;;;;;;;15.90;15.20;;;;;;;-141.02;100.00;102214.16;5113930;28;20201;-65
2024/01/24 00:41:52;;;;;;;17.27;16.57;;;;;;;-141.02;100.00;102214.16;5113888;28;20229;-65
2024/01/24 00:44:20;;;;;;;18.07;17.37;;;;;;;-141.02;100.00;102214.16;5114080;28;20212;-65
2024/01/24 00:46:47;;;;;;;16.83;16.33;;;;;;;-141.02;100.00;102464.22;5114043;28;20285;-65
2024/01/24 00:49:14;;;;;;;14.60;14.00;;;;;;;-141.02;100.00;102214.16;5114018;28;20231;-65
2024/01/24 00:51:42;;;;;;;16.80;16.10;;;;;;;-141.02;100.00;102214.16;5113131;28;20250;-67
2024/01/24 00:54:15;;;;;;;21.03;20.03;;;;;;;-141.02;100.00;102214.16;5113671;28;20650;-67
2024/01/24 00:56:43;;;;;;;17.60;16.90;;;;;;;-141.02;100.00;102214.16;5113912;28;20259;-66
2024/01/24 00:59:12;;;;;;;17.40;16.80;;;;;;;-141.02;100.00;102214.16;5113558;28;20189;-66
2024/01/24 01:01:47;;;;;;;16.83;16.23;;;;;;;-141.02;100.00;102214.16;5113457;28;20198;-66
2024/01/24 01:04:14;;;;;;;16.80;16.20;;;;;;;-141.02;100.00;102214.16;5113763;28;20192;-66
2024/01/24 01:06:43;;;;;;;17.13;16.53;;;;;;;-141.02;100.00;102214.16;5113404;28;20659;-65
2024/01/24 01:09:16;;;;;;;17.40;16.70;;;;;;;-141.02;100.00;102214.16;5113581;28;20193;-65
2024/01/24 01:11:43;;;;;;;15.60;15.10;;;;;;;-141.02;100.00;102464.22;5113341;28;20655;-65
2024/01/24 01:14:10;;;;;;;13.93;13.53;;;;;;;-141.02;100.00;102464.22;5113607;28;20275;-66
2024/01/24 01:20:14;;;;;;;15.70;15.10;;;;;;;-141.02;100.00;102464.22;5112817;28;20285;-66
2024/01/24 01:22:41;;;;;;;14.60;14.10;;;;;;;-141.02;100.00;102464.22;5113483;28;20181;-66
2024/01/24 01:25:09;;;;;;;13.83;13.33;;;;;;;-141.02;100.00;102464.22;5113059;28;20575;-66
2024/01/24 01:27:35;;;;;;;13.37;12.97;;;;;;;-141.02;100.00;102464.22;5113017;28;20203;-66
2024/01/24 01:30:03;;;;;;;14.23;13.73;;;;;;;-141.02;100.00;102464.22;5113250;28;20228;-65
2024/01/24 01:32:30;;;;;;;13.83;13.33;;;;;;;-141.02;100.00;102464.22;5113276;28;20228;-66
2024/01/24 01:35:00;;;;;;;14.77;14.27;;;;;;;-141.02;100.00;102464.22;5113255;28;20231;-66
2024/01/24 01:37:28;;;;;;;17.10;16.40;;;;;;;-141.02;100.00;102464.22;5113185;28;20292;-65
2024/01/24 01:39:55;;;;;;;14.40;13.90;;;;;;;-141.02;100.00;102714.25;5112836;28;20207;-66
2024/01/24 01:42:22;;;;;;;13.77;13.37;;;;;;;-141.02;100.00;102464.22;5113133;28;20197;-66
2024/01/24 01:44:49;;;;;;;14.13;13.63;;;;;;;-141.02;100.00;102464.22;5112729;28;20197;-65
2024/01/24 01:47:17;;;;;;;14.13;13.63;;;;;;;-141.02;100.00;102464.22;5112711;28;20197;-67
2024/01/24 01:49:46;;;;;;;15.60;15.10;;;;;;;-141.02;100.00;102464.22;5112914;28;20281;-66
2024/01/24 01:52:15;;;;;;;16.50;15.90;;;;;;;-141.02;100.00;102214.16;5113195;28;20647;-66
2024/01/24 01:54:44;;;;;;;16.37;15.77;;;;;;;-141.02;100.00;102214.16;5112607;28;20200;-66
2024/01/24 01:57:12;;;;;;;14.70;14.20;;;;;;;-141.02;100.00;102214.16;5112903;28;20291;-65
2024/01/24 01:59:41;;;;;;;13.47;13.07;;;;;;;-141.02;100.00;102214.16;5112564;28;20213;-65
2024/01/24 02:02:16;;;;;;;14.30;13.80;;;;;;;-141.02;100.00;102214.16;5112595;28;20204;-65
2024/01/24 02:04:43;;;;;;;14.60;14.10;;;;;;;-141.02;100.00;102464.22;5112458;28;20697;-68
2024/01/24 02:07:10;;;;;;;14.60;14.10;;;;;;;-141.02;100.00;102464.22;5112477;28;20670;-66
2024/01/24 02:09:38;;;;;;;15.23;14.73;;;;;;;-141.02;100.00;102464.22;5112640;28;20670;-66
2024/01/24 02:12:07;;;;;;;14.83;14.33;;;;;;;-141.02;100.00;102464.22;5112369;28;20197;-66
2024/01/24 02:14:34;;;;;;;12.70;12.30;;;;;;;-141.02;100.00;102464.22;5112410;28;20197;-66
2024/01/24 02:17:01;;;;;;;13.27;12.87;;;;;;;-141.02;100.00;102714.25;5112815;28;20229;-66
2024/01/24 02:19:28;;;;;;;14.13;13.63;;;;;;;-141.02;100.00;102714.25;5111145;28;20316;-67
2024/01/24 02:21:55;;;;;;;13.67;13.27;;;;;;;-141.02;100.00;102464.22;5112637;28;20223;-65
2024/01/24 02:24:23;;;;;;;13.70;13.30;;;;;;;-141.02;100.00;102464.22;5112629;28;20209;-68
2024/01/24 02:26:50;;;;;;;16.43;15.83;;;;;;;-141.02;100.00;102214.16;5112597;28;20253;-69
2024/01/24 02:29:17;;;;;;;16.43;15.83;;;;;;;-141.02;100.00;102214.16;5112549;28;20203;-70
2024/01/24 02:31:44;;;;;;;14.07;13.67;;;;;;;-141.02;100.00;102464.22;5112515;28;20312;-68
2024/01/24 02:34:11;;;;;;;13.97;13.57;;;;;;;-141.02;100.00;102464.22;5112547;28;20193;-69
2024/01/24 02:36:38;;;;;;;13.50;13.10;;;;;;;-141.02;100.00;102464.22;5112529;28;20276;-67
2024/01/24 02:39:06;;;;;;;14.30;13.87;;;;;;;-141.02;100.00;102714.25;5112258;28;20189;-70
2024/01/24 02:41:36;;;;;;;15.67;15.07;;;;;;;-141.02;100.00;102464.22;5112070;28;20654;-69
2024/01/24 02:44:06;;;;;;;15.80;15.20;;;;;;;-141.02;100.00;102714.25;5112425;28;20204;-68
2024/01/24 02:46:36;;;;;;;14.43;13.93;;;;;;;-141.02;100.00;102464.22;5112116;28;20201;-68
2024/01/24 02:49:06;;;;;;;13.30;12.90;;;;;;;-141.02;100.00;102464.22;5112022;28;20636;-69
2024/01/24 02:51:36;;;;;;;14.00;13.60;;;;;;;-141.02;100.00;102464.22;5112000;28;20233;-68
2024/01/24 02:56:48;;;;;;;14.47;13.97;;;;;;;-141.02;100.00;102214.16;5084590;28;20205;-66
2024/01/24 02:59:33;;;;;;;14.93;14.43;;;;;;;-141.02;100.00;102214.16;5112238;28;20228;-69
2024/01/24 03:02:07;;;;;;;15.57;15.03;;;;;;;-141.02;100.00;102464.22;5111945;28;20200;-68
2024/01/24 03:04:37;;;;;;;13.50;13.10;;;;;;;-141.02;100.00;102214.16;5112248;28;20205;-65
2024/01/24 03:07:06;;;;;;;14.20;13.70;;;;;;;-141.02;100.00;102214.16;5112254;28;20197;-66
2024/01/24 03:09:39;;;;;;;13.73;13.33;;;;;;;-141.02;100.00;101964.16;5111917;28;20205;-69
2024/01/24 03:12:08;;;;;;;14.80;14.30;;;;;;;-141.02;100.00;101714.16;5111876;28;20189;-66
2024/01/24 03:14:35;;;;;;;16.63;16.03;;;;;;;-141.02;100.00;101464.19;5113640;28;20659;-66
2024/01/24 03:17:08;;;;;;;16.10;15.60;;;;;;;-141.02;100.00;101464.19;5115923;28;20280;-66
2024/01/24 03:19:38;;;;;;;14.77;14.27;;;;;;;-141.02;100.00;101214.22;5115553;28;20258;-67
2024/01/24 03:22:08;;;;;;;13.67;13.17;;;;;;;-141.02;100.00;101714.16;5115539;28;20208;-68
2024/01/24 03:24:38;;;;;;;13.10;12.70;;;;;;;-141.02;100.00;101714.16;5115567;28;20202;-66
2024/01/24 03:27:09;;;;;;;13.57;13.17;;;;;;;-141.02;100.00;102214.16;5115679;28;20296;-66
2024/01/24 03:29:43;;;;;;;13.57;13.17;;;;;;;-141.02;100.00;102714.25;5115624;28;20280;-67
2024/01/24 03:32:11;;;;;;;13.77;13.37;;;;;;;-141.02;100.00;102964.34;5115551;28;20219;-65
2024/01/24 03:34:40;;;;;;;11.00;10.70;;;;;;;-141.02;100.00;102964.34;5115573;28;20193;-66
2024/01/24 03:37:13;;;;;;;10.80;10.50;;;;;;;-141.02;100.00;102714.25;5115425;28;20745;-68
2024/01/24 03:39:41;;;;;;;12.87;12.47;;;;;;;-141.02;100.00;102464.22;5115155;28;20239;-69
2024/01/24 03:42:11;;;;;;;17.40;16.80;;;;;;;-141.02;100.00;102464.22;5115111;28;20232;-67
2024/01/24 03:44:41;;;;;;;15.60;15.10;;;;;;;-141.02;100.00;102464.22;5115311;28;20273;-67
2024/01/24 03:47:11;;;;;;;14.07;13.67;;;;;;;-141.02;100.00;102714.25;5115588;28;20197;-69
2024/01/24 03:49:39;;;;;;;14.10;13.70;;;;;;;-141.02;100.00;102964.34;5114947;28;20193;-67
2024/01/24 03:52:06;;;;;;;13.67;13.27;;;;;;;-141.02;100.00;102964.34;5114871;28;20321;-70
2024/01/24 03:54:34;;;;;;;14.03;13.53;;;;;;;-141.02;100.00;102964.34;5114853;28;20197;-68
2024/01/24 03:57:01;;;;;;;13.23;12.83;;;;;;;-141.02;100.00;103214.44;5114761;28;20200;-68
2024/01/24 03:59:29;;;;;;;13.40;13.00;;;;;;;-141.02;100.00;102964.34;5115000;28;20659;-67
2024/01/24 04:01:59;;;;;;;12.77;12.37;;;;;;;-141.02;100.00;102714.25;5114980;28;20579;-69
2024/01/24 04:04:26;;;;;;;14.87;14.37;;;;;;;-141.02;100.00;102714.25;5114631;28;20207;-69
2024/01/24 04:06:54;;;;;;;14.13;13.63;;;;;;;-141.02;100.00;102714.25;5114565;28;20199;-68
2024/01/24 04:09:21;;;;;;;12.10;11.70;;;;;;;-141.02;100.00;102214.16;5114829;28;20196;-69
2024/01/24 04:11:48;;;;;;;12.53;12.13;;;;;;;-141.02;100.00;102464.22;5114410;28;20225;-71
2024/01/24 04:14:15;;;;;;;14.70;14.20;;;;;;;-141.02;100.00;102464.22;5114736;28;20276;-68
2024/01/24 04:16:43;;;;;;;14.47;13.97;;;;;;;-141.02;100.00;102714.25;5114716;28;20197;-67
2024/01/24 04:19:10;;;;;;;13.10;12.70;;;;;;;-141.02;100.00;102714.25;5114166;28;20315;-68
2024/01/24 04:21:42;;;;;;;12.90;12.50;;;;;;;-141.02;100.00;102464.22;5114625;28;20193;-66
2024/01/24 04:24:09;;;;;;;13.17;12.67;;;;;;;-141.02;100.00;102464.22;5114256;28;20674;-68
2024/01/24 04:26:36;;;;;;;12.23;11.83;;;;;;;-141.02;100.00;102714.25;5114436;28;20662;-67
2024/01/24 04:29:03;;;;;;;12.33;11.93;;;;;;;-141.02;100.00;102964.34;5114438;28;20276;-69
2024/01/24 04:31:30;;;;;;;13.73;13.23;;;;;;;-141.02;100.00;103214.44;5114281;28;20221;-67
2024/01/24 04:33:58;;;;;;;13.13;12.73;;;;;;;-141.02;100.00;103714.66;5114408;28;20192;-67
2024/01/24 04:36:25;;;;;;;12.70;12.20;;;;;;;-141.02;100.00;103714.66;5113996;28;20273;-71
2024/01/24 04:38:52;;;;;;;13.47;12.97;;;;;;;-141.02;100.00;103464.53;5114270;28;20287;-69
2024/01/24 04:41:19;;;;;;;12.47;12.07;;;;;;;-141.02;100.00;103464.53;5114196;28;20641;-69
2024/01/24 04:43:46;;;;;;;13.50;13.00;;;;;;;-141.02;100.00;103464.53;5114412;28;20197;-67
2024/01/24 04:46:14;;;;;;;13.63;13.13;;;;;;;-141.02;100.00;103464.53;5114164;28;20280;-71
2024/01/24 04:48:48;;;;;;;13.43;12.93;;;;;;;-141.02;100.00;103214.44;5113687;28;20666;-68
2024/01/24 04:51:16;;;;;;;14.17;13.67;;;;;;;-141.02;100.00;102964.34;5113860;28;20229;-70
2024/01/24 04:53:43;;;;;;;13.20;12.70;;;;;;;-141.02;100.00;102964.34;5113917;28;20387;-70
2024/01/24 04:56:10;;;;;;;13.23;12.73;;;;;;;-141.02;100.00;102964.34;5113913;28;20190;-69
2024/01/24 04:58:37;;;;;;;13.90;13.40;;;;;;;-141.02;100.00;103214.44;5113536;28;20240;-69
2024/01/24 05:01:04;;;;;;;15.27;14.67;;;;;;;-141.02;100.00;102964.34;5113526;28;20649;-69
2024/01/24 05:03:31;;;;;;;15.40;14.80;;;;;;;-141.02;100.00;102464.22;5113535;28;20195;-71
2024/01/24 05:05:58;;;;;;;15.43;14.73;;;;;;;-141.02;100.00;102464.22;5113760;28;20272;-69
2024/01/24 05:08:26;;;;;;;13.93;13.43;;;;;;;-141.02;100.00;102464.22;5113721;28;20224;-69
2024/01/24 05:10:53;;;;;;;15.03;14.43;;;;;;;-141.02;100.00;102464.22;5113521;28;20224;-68
2024/01/24 05:13:26;;;;;;;15.00;14.40;;;;;;;-141.02;100.00;102464.22;5113321;28;20204;-71
2024/01/24 05:15:53;;;;;;;15.87;15.17;;;;;;;-141.02;100.00;102464.22;5113554;28;20256;-71
2024/01/24 05:18:20;;;;;;;14.40;13.90;;;;;;;-141.02;100.00;102464.22;5112988;28;20659;-68
2024/01/24 05:20:47;;;;;;;14.77;14.17;;;;;;;-141.02;100.00;102464.22;5113481;28;20200;-69
2024/01/24 05:23:14;;;;;;;14.40;13.90;;;;;;;-141.02;100.00;102464.22;5113565;28;20219;-68
2024/01/24 05:25:43;;;;;;;15.23;14.53;;;;;;;-141.02;100.00;102714.25;5113681;28;20189;-69
2024/01/24 05:28:10;;;;;;;16.00;15.40;;;;;;;-141.02;100.00;102714.25;5113022;28;20654;-69
2024/01/24 05:30:37;;;;;;;14.20;13.70;;;;;;;-141.02;100.00;102964.34;5112882;28;20694;-68
2024/01/24 05:33:04;;;;;;;14.43;13.93;;;;;;;-141.02;100.00;102964.34;5113263;28;20280;-69
2024/01/24 05:35:31;;;;;;;13.30;12.90;;;;;;;-141.02;100.00;102714.25;5112931;28;20741;-71
2024/01/24 05:37:58;;;;;;;12.67;12.27;;;;;;;-141.02;100.00;102464.22;5112508;28;20280;-70
2024/01/24 05:40:25;;;;;;;13.10;12.70;;;;;;;-141.02;100.00;102464.22;5112863;28;20203;-68
2024/01/24 05:42:53;;;;;;;13.77;13.27;;;;;;;-141.02;100.00;102464.22;5113171;28;20228;-71
2024/01/24 05:45:20;;;;;;;13.67;13.27;;;;;;;-141.02;100.00;102464.22;5113071;28;20568;-68
2024/01/24 05:47:47;;;;;;;14.90;14.47;;;;;;;-141.02;100.00;102464.22;5113042;28;20724;-69
2024/01/24 05:50:15;;;;;;;13.27;12.87;;;;;;;-141.02;100.00;102714.25;5112752;28;20280;-69
2024/01/24 05:52:42;;;;;;;13.43;13.03;;;;;;;-141.02;100.00;102714.25;5112617;28;20686;-67
2024/01/24 05:55:10;;;;;;;13.20;12.80;;;;;;;-141.02;100.00;102964.34;5112982;28;20201;-71
2024/01/24 05:57:39;;;;;;;13.13;12.73;;;;;;;-141.02;100.00;103214.44;5112836;28;20687;-70
2024/01/24 06:00:10;;;;;;;13.60;13.20;;;;;;;-141.02;100.00;103464.53;5112902;28;20200;-73
2024/01/24 06:02:37;;;;;;;12.20;11.80;;;;;;;-141.02;100.00;103464.53;5112849;28;20193;-72
2024/01/24 06:05:04;;;;;;;11.63;11.33;;;;;;;-141.02;100.00;103714.66;5112829;28;20197;-73
2024/01/24 06:07:32;;;;;;;11.83;11.53;;;;;;;-141.02;100.00;103964.81;5112811;28;20199;-71
2024/01/24 06:09:59;;;;;;;11.77;11.47;;;;;;;-141.02;100.00;103714.66;5112466;28;20758;-73
2024/01/24 06:12:26;;;;;;;11.17;10.87;;;;;;;-141.02;100.00;103714.66;5112332;28;20224;-71
2024/01/24 06:14:55;;;;;;;12.13;11.73;;;;;;;-141.02;100.00;103714.66;5112752;28;20297;-72
2024/01/24 06:17:23;;;;;;;12.50;12.10;;;;;;;-141.02;100.00;103464.53;5112423;28;20651;-71
2024/01/24 06:19:51;;;;;;;11.90;11.50;;;;;;;-141.02;100.00;103464.53;5112367;28;20601;-73
2024/01/24 06:22:18;;;;;;;11.50;11.10;;;;;;;-141.02;100.00;103464.53;5112713;28;20283;-71
2024/01/24 06:24:45;;;;;;;11.70;11.30;;;;;;;-141.02;100.00;103714.66;5112612;28;20284;-71
2024/01/24 06:27:12;;;;;;;11.30;10.90;;;;;;;-141.02;100.00;103714.66;5112289;28;20199;-72
2024/01/24 06:29:39;;;;;;;12.50;12.00;;;;;;;-141.02;100.00;103714.66;5112283;28;20199;-69
2024/01/24 06:32:07;;;;;;;12.37;11.87;;;;;;;-141.02;100.00;103714.66;5112174;28;20718;-72
2024/01/24 06:34:35;;;;;;;13.40;12.90;;;;;;;-141.02;100.00;103714.66;5112608;28;20275;-70
2024/01/24 06:37:02;;;;;;;13.57;13.07;;;;;;;-141.02;100.00;103464.53;5112578;28;20593;-73
2024/01/24 06:39:29;;;;;;;13.83;13.43;;;;;;;-141.02;100.00;103214.44;5112201;28;20284;-72
2024/01/24 06:41:56;;;;;;;11.63;11.27;;;;;;;-141.02;100.00;103214.44;5113163;28;20280;-72
2024/01/24 06:44:23;;;;;;;12.57;12.17;;;;;;;-141.02;100.00;103214.44;5112677;28;20189;-73
2024/01/24 06:46:50;;;;;;;13.50;13.00;;;;;;;-141.02;100.00;103214.44;5112183;28;20260;-73
2024/01/24 06:49:30;;;;;;;13.33;12.83;;;;;;;-141.02;100.00;103214.44;5113371;28;20193;-71
2024/01/24 06:51:58;;;;;;;14.90;14.40;;;;;;;-141.02;100.00;103214.44;5116015;28;20730;-74
2024/01/24 06:54:25;;;;;;;15.70;15.10;;;;;;;-141.02;100.00;102964.34;5116069;28;20572;-73
2024/01/24 06:56:52;;;;;;;15.50;14.90;;;;;;;-141.02;100.00;103214.44;5115989;28;20278;-74
2024/01/24 06:59:19;;;;;;;18.17;17.47;;;;;;;-141.02;100.00;103214.44;5116515;28;20200;-72
2024/01/24 07:01:46;;;;;;;18.03;17.33;;;;;;;-141.02;100.00;102464.22;5115974;28;20197;-72
2024/01/24 07:04:13;;;;;;;19.30;18.50;;;;;;;-141.02;100.00;102214.16;5115844;28;20289;-74
2024/01/24 07:07:37;;;;;;;18.40;17.60;;;;;;;-141.02;100.00;102214.16;5116381;28;20193;-73
2024/01/24 07:10:10;;;;;;;21.70;20.40;;;;;;;-141.02;100.00;101964.16;5115709;28;20190;-71
2024/01/24 07:12:39;;;;;;;20.73;19.43;;;;;;;-141.02;100.00;101964.16;5116005;28;20224;-71
2024/01/24 07:15:07;;;;;;;20.40;19.20;;;;;;;-141.02;100.00;101714.16;5115812;28;20199;-70
2024/01/24 07:17:34;;;;;;;22.80;21.30;;;;;;;-141.02;100.00;101464.19;5115609;28;20718;-69
2024/01/24 07:20:01;;;;;;;23.80;22.20;;;;;;;-141.02;100.00;101464.19;5115707;28;20228;-69
2024/01/24 07:22:27;;;;;;;23.03;21.53;;;;;;;-141.02;100.00;101464.19;5115832;28;20585;-69
2024/01/24 07:24:54;;;;;;;24.17;22.57;;;;;;;-141.02;100.00;101464.19;5115453;28;20763;-69
2024/01/24 07:27:23;;;;;;;26.33;24.47;;;;;;;-141.02;100.00;101214.22;5115696;28;20195;-68
2024/01/24 07:29:50;;;;;;;26.00;24.30;;;;;;;-141.02;100.00;100964.25;5115375;28;20589;-68
2024/01/24 07:32:17;;;;;;;25.90;24.20;;;;;;;-141.02;100.00;100964.25;5115223;28;20605;-69
2024/01/24 07:34:44;;;;;;;28.33;26.63;;;;;;;-141.02;100.00;100964.25;5115264;28;20227;-69
2024/01/24 07:37:11;;;;;;;28.67;26.67;;;;;;;-141.02;100.00;100964.25;5115200;28;20729;-70
2024/01/24 07:39:38;;;;;;;28.73;26.73;;;;;;;-141.02;100.00;100964.25;5115453;28;20272;-70
2024/01/24 07:42:05;;;;;;;30.73;28.73;;;;;;;-141.02;100.00;100714.34;5115155;28;20246;-71
2024/01/24 07:44:33;;;;;;;30.30;28.30;;;;;;;-141.02;100.00;100714.34;5114996;28;20193;-71
2024/01/24 07:47:01;;;;;;;31.17;29.17;;;;;;;-141.02;100.00;100214.53;5115247;28;20600;-71
2024/01/24 07:49:51;;;;;;;29.17;27.17;;;;;;;-141.02;100.00;99714.81;5115222;28;20221;-70
2024/01/24 07:52:18;;;;;;;33.33;31.03;;;;;;;-141.02;100.00;98965.34;5115116;28;20231;-69
2024/01/24 07:54:45;;;;;;;30.87;28.97;;;;;;;-141.02;100.00;99215.16;5115154;28;20198;-69
2024/01/24 07:57:30;;;;;;;31.53;29.53;;;;;;;-141.02;100.00;98715.56;5114793;28;20189;-67
2024/01/24 07:59:58;;;;;;;30.90;28.90;;;;;;;-141.02;100.00;98465.78;5114441;28;20626;-68
2024/01/24 08:02:25;;;;;;;29.57;27.67;;;;;;;-141.02;100.00;97966.31;5114717;28;20663;-68
2024/01/24 08:04:59;;;;;;;27.60;25.80;;;;;;;-141.02;100.00;98216.03;5115008;28;20200;-67
2024/01/24 08:07:26;;;;;;;26.80;25.10;;;;;;;-141.02;100.00;98465.78;5114683;28;20201;-68
2024/01/24 08:09:53;;;;;;;28.53;26.63;;;;;;;-141.02;100.00;98465.78;5114882;28;20275;-67
2024/01/24 08:12:32;;;;;;;31.17;29.07;;;;;;;-141.02;100.00;98216.03;5114480;28;20221;-67
2024/01/24 08:15:00;;;;;;;30.80;28.70;;;;;;;-141.02;100.00;98465.78;5114768;28;20193;-66
2024/01/24 08:17:27;;;;;;;35.10;32.80;;;;;;;-141.02;100.00;98216.03;5114782;28;20193;-66
2024/01/24 08:19:54;;;;;;;33.53;31.23;;;;;;;-141.02;100.00;97716.59;5111566;28;20789;-65
2024/01/24 08:22:22;;;;;;;32.37;30.07;;;;;;;-141.02;100.00;98216.03;5114688;28;20190;-65
2024/01/24 08:25:10;;;;;;;33.73;31.33;;;;;;;-141.02;100.00;97466.91;5114569;28;20197;-65
2024/01/24 08:27:39;;;;;;;35.67;33.17;;;;;;;-141.02;100.00;97217.22;5114241;28;20233;-65
2024/01/24 08:30:08;;;;;;;35.60;33.20;;;;;;;-141.02;100.00;96967.56;5114532;28;20539;-64
2024/01/24 08:32:40;;;;;;;35.43;32.93;;;;;;;-141.02;100.00;96967.56;5114055;28;20670;-65
2024/01/24 08:35:08;;;;;;;37.80;35.20;;;;;;;-141.02;100.00;96967.56;5114396;28;20277;-64
2024/01/24 08:37:35;;;;;;;38.33;35.73;;;;;;;-141.02;100.00;96967.56;5114049;28;20193;-63
2024/01/24 08:40:02;;;;;;;39.50;36.70;;;;;;;-141.02;100.00;96967.56;5114557;28;20273;-64
2024/01/24 08:42:29;;;;;;;40.77;37.83;;;;;;;-141.02;98.87;96218.69;5114253;28;20201;-63
2024/01/24 08:44:56;;;;;;;41.23;38.33;;;;;;;-141.02;98.96;95719.53;5114229;28;20196;-64
2024/01/24 08:47:33;;;;;;;41.93;38.93;;;;;;;-141.02;100.00;96218.69;5113881;28;20669;-64
2024/01/24 08:50:00;;;;;;;42.43;39.57;;;;;;;-141.02;100.00;96218.69;5114213;28;20220;-63
2024/01/24 08:52:27;;;;;;;43.90;40.90;;;;;;;-141.02;97.36;95719.53;5113899;28;20319;-62
2024/01/24 08:54:54;;;;;;;37.33;34.73;;;;;;;-141.02;98.32;95470.00;5113973;28;20193;-62
2024/01/24 08:57:21;;;;;;;43.07;40.23;;;;;;;-141.02;98.58;94222.50;5113626;28;20288;-61
2024/01/24 08:59:58;;;;;;;43.07;40.37;;;;;;;-141.02;100.00;93224.84;5113555;28;20658;-61
2024/01/24 09:02:26;;;;;;;38.33;35.90;;;;;;;-141.02;100.00;93224.84;5113589;28;20242;-60
2024/01/24 09:04:54;;;;;;;37.83;35.43;;;;;;;-141.02;100.00;93224.84;5113791;28;20193;-61
2024/01/24 09:07:21;;;;;;;39.37;36.87;;;;;;;-141.02;100.00;93474.22;5113414;28;20288;-60
2024/01/24 09:09:50;;;;;;;41.60;39.00;;;;;;;-141.02;100.00;93973.06;5113754;28;20228;-63
2024/01/24 09:12:25;;;;;;;43.60;40.80;;;;;;;-141.02;100.00;94471.97;5112800;28;20232;-59
2024/01/24 09:14:52;;;;;;;42.27;39.47;;;;;;;-141.02;100.00;93973.06;5113313;28;20227;-60
2024/01/24 09:17:19;;;;;;;35.73;33.33;;;;;;;-141.02;100.00;94222.50;5113690;28;20189;-60
2024/01/24 09:20:31;;;;;;;30.47;28.30;;;;;;;-141.02;100.00;93723.63;5113118;28;20602;-59
2024/01/24 09:22:59;;;;;;;35.13;32.83;;;;;;;-141.02;100.00;94222.50;5113391;28;20592;-59
2024/01/24 09:25:27;;;;;;;34.53;32.33;;;;;;;-141.02;100.00;94471.97;5113381;28;20271;-61
2024/01/24 09:27:56;;;;;;;40.50;37.80;;;;;;;-141.02;100.00;93723.63;5113297;28;20193;-59
2024/01/24 09:30:23;;;;;;;40.13;37.33;;;;;;;-141.02;100.00;93723.63;5113201;28;20201;-63
2024/01/24 09:32:49;;;;;;;23.53;21.73;;;;;;;-141.02;100.00;94471.97;5112924;28;20308;-64
2024/01/24 09:35:17;;;;;;;28.20;26.10;;;;;;;-141.02;98.58;94471.97;5112936;28;20655;-63
2024/01/24 09:37:44;;;;;;;27.23;25.23;;;;;;;-141.02;98.72;94721.44;5113238;28;20197;-62
2024/01/24 09:40:15;;;;;;;29.13;26.93;;;;;;;-141.02;96.32;94970.94;5113138;28;20216;-64
2024/01/24 09:42:51;;;;;;;28.20;26.10;;;;;;;-141.02;99.30;94721.44;5112800;28;20192;-61
2024/01/24 09:45:19;;;;;;;28.00;25.80;;;;;;;-141.02;96.66;94222.50;5111750;28;20291;-59
2024/01/24 09:47:47;;;;;;;22.77;20.87;;;;;;;-141.02;98.96;94471.97;5113131;28;20247;-59
2024/01/24 09:50:17;;;;;;;28.10;25.90;;;;;;;-141.02;96.55;94721.44;5112648;28;20189;-61
2024/01/24 09:52:45;;;;;;;25.50;23.50;;;;;;;-141.02;97.31;94970.94;5112862;28;20331;-62
2024/01/24 09:55:16;;;;;;;28.27;26.17;;;;;;;-141.02;96.16;94970.94;5112626;28;20655;-62
2024/01/24 09:57:43;;;;;;;23.47;21.47;;;;;;;-141.02;96.76;94471.97;5112909;28;20642;-63
2024/01/24 10:00:11;;;;;;;23.90;21.80;;;;;;;-141.02;95.33;93973.06;5112583;28;20283;-63
2024/01/24 10:02:39;;;;;;;24.90;22.80;;;;;;;-141.02;95.56;93224.84;5112557;28;20232;-64
2024/01/24 10:05:13;;;;;;;29.67;27.47;;;;;;;-141.02;96.83;94471.97;5112779;28;20197;-65
2024/01/24 10:07:41;;;;;;;28.57;26.37;;;;;;;-141.02;93.58;93973.06;5112814;28;20264;-65
2024/01/24 10:10:12;;;;;;;28.80;26.70;;;;;;;-141.02;96.77;93723.63;5112374;28;20203;-66
2024/01/24 10:12:41;;;;;;;22.37;20.57;;;;;;;-141.02;96.60;93723.63;5112367;28;20327;-65
2024/01/24 10:15:09;;;;;;;27.73;25.63;;;;;;;-141.02;96.68;93973.06;5112391;28;20288;-65
2024/01/24 10:17:36;;;;;;;25.63;23.73;;;;;;;-141.02;95.12;93973.06;5112435;28;20283;-66
2024/01/24 10:20:06;;;;;;;22.30;20.50;;;;;;;-141.02;94.92;93973.06;5112370;28;20227;-67
2024/01/24 10:22:33;;;;;;;22.10;20.30;;;;;;;-141.02;94.82;94471.97;5112668;28;20193;-67
2024/01/24 10:25:01;;;;;;;25.00;23.00;;;;;;;-141.02;90.56;94471.97;5116612;28;20193;-68
2024/01/24 10:27:28;;;;;;;25.73;23.73;;;;;;;-141.02;91.14;92975.47;5116869;28;20276;-67
2024/01/24 10:29:56;;;;;;;22.80;20.90;;;;;;;-141.02;95.70;92726.13;5116558;28;20675;-67
2024/01/24 10:32:23;;;;;;;22.40;20.50;;;;;;;-141.02;95.99;92726.13;5116717;28;20307;-68
2024/01/24 10:34:50;;;;;;;23.93;22.03;;;;;;;-141.02;92.91;92476.78;5116779;28;20226;-68
2024/01/24 10:37:18;;;;;;;26.37;24.37;;;;;;;-141.02;94.06;92476.78;5116738;28;20219;-69
2024/01/24 10:39:45;;;;;;;27.60;25.50;;;;;;;-141.02;93.65;92975.47;5116380;28;20597;-69
2024/01/24 10:42:18;;;;;;;26.40;24.50;;;;;;;-141.02;93.64;93474.22;5116332;28;20735;-69
2024/01/24 10:44:49;;;;;;;27.73;25.63;;;;;;;-141.02;92.90;92476.78;5116652;28;20197;-70
2024/01/24 10:47:17;;;;;;;23.27;21.27;;;;;;;-141.02;92.27;92476.78;5116545;28;20272;-70
2024/01/24 10:49:45;;;;;;;22.63;20.73;;;;;;;-141.02;91.76;93224.84;5116439;28;20228;-70
2024/01/24 10:52:12;;;;;;;24.73;22.63;;;;;;;-141.02;92.31;91978.16;5116330;28;20733;-72
2024/01/24 10:54:41;;;;;;;24.77;22.87;;;;;;;-141.02;92.95;92227.47;5116003;28;20199;-74
2024/01/24 10:57:08;;;;;;;21.87;20.07;;;;;;;-141.02;92.29;92476.78;5116348;28;20195;-73
2024/01/24 10:59:38;;;;;;;22.57;20.67;;;;;;;-141.02;94.66;91230.38;5115942;28;20208;-73
2024/01/24 11:02:10;;;;;;;22.83;21.03;;;;;;;-141.02;96.62;91978.16;5116002;28;20666;-73
2024/01/24 11:04:39;;;;;;;26.97;24.97;;;;;;;-141.02;95.98;91978.16;5115916;28;20281;-75